createdAt,value
2023-02-04T00:05:05.537Z,51.47
2023-02-04T00:10:20.648Z,43.45
2023-02-04T00:15:35.586Z,37.53
2023-02-04T00:20:50.628Z,39.75
2023-02-04T00:26:05.572Z,32.55
2023-02-04T00:31:20.908Z,33.60
2023-02-04T00:36:36.511Z,29.52
2023-02-04T00:41:52.567Z,35.53
2023-02-04T00:47:07.595Z,40.28
2023-02-04T00:52:22.574Z,36.30
2023-02-04T00:57:37.533Z,40.05
2023-02-04T01:02:52.921Z,34.95
2023-02-04T01:08:08.535Z,35.15
2023-02-04T01:13:23.880Z,38.75
2023-02-04T01:18:39.516Z,35.50
2023-02-04T01:23:54.622Z,31.85
2023-02-04T01:29:09.662Z,28.98
2023-02-04T01:34:25.580Z,32.83
2023-02-04T01:39:40.562Z,30.08
2023-02-04T01:44:55.915Z,29.88
2023-02-04T01:50:11.559Z,28.85
2023-02-04T01:55:26.517Z,27.88
2023-02-04T02:00:41.943Z,24.67
2023-02-04T02:05:57.561Z,32.95
2023-02-04T02:11:12.526Z,23.65
2023-02-04T02:16:28.058Z,28.52
2023-02-04T02:21:44.833Z,31.48
2023-02-04T02:27:00.608Z,22.00
2023-02-04T02:32:15.575Z,21.20
2023-02-04T02:37:30.937Z,24.08
2023-02-04T02:42:47.299Z,29.30
2023-02-04T02:48:02.552Z,25.40
2023-02-04T02:53:17.554Z,19.30
2023-02-04T02:58:32.587Z,24.38
2023-02-04T03:03:48.548Z,20.67
2023-02-04T03:09:03.570Z,17.88
2023-02-04T03:14:19.608Z,22.80
2023-02-04T03:19:35.523Z,18.40
2023-02-04T03:24:50.298Z,22.13
2023-02-04T03:30:05.582Z,17.23
2023-02-04T03:35:20.517Z,19.30
2023-02-04T03:40:35.565Z,17.35
2023-02-04T03:45:50.536Z,16.80
2023-02-04T03:51:05.534Z,17.33
2023-02-04T03:56:20.590Z,14.80
2023-02-04T04:01:35.546Z,19.98
2023-02-04T04:06:50.531Z,17.10
2023-02-04T04:12:05.587Z,14.25
2023-02-04T04:17:20.871Z,19.10
2023-02-04T04:22:36.565Z,25.73
2023-02-04T04:27:51.550Z,19.15
2023-02-04T04:33:06.584Z,18.48
2023-02-04T04:38:21.594Z,15.80
2023-02-04T04:43:36.538Z,13.40
2023-02-04T04:48:51.551Z,14.15
2023-02-04T04:54:06.897Z,14.13
2023-02-04T04:59:22.855Z,14.20
2023-02-04T05:04:38.598Z,11.23
2023-02-04T05:09:53.596Z,13.52
2023-02-04T05:15:08.314Z,15.18
2023-02-04T05:20:23.772Z,13.73
2023-02-04T05:25:39.887Z,16.27
2023-02-04T05:30:55.597Z,13.27
2023-02-04T05:36:10.548Z,15.65
2023-02-04T05:41:25.589Z,11.43
2023-02-04T05:46:40.558Z,12.88
2023-02-04T05:51:55.313Z,12.93
2023-02-04T05:57:10.549Z,13.77
2023-02-04T06:02:25.580Z,23.10
2023-02-04T06:07:40.609Z,19.55
2023-02-04T06:12:55.676Z,14.20
2023-02-04T06:18:10.900Z,12.45
2023-02-04T06:23:26.613Z,27.80
2023-02-04T06:28:41.622Z,24.00
2023-02-04T06:33:56.583Z,13.15
2023-02-04T06:39:11.848Z,14.30
2023-02-04T06:44:27.570Z,24.05
2023-02-04T06:49:42.535Z,11.38
2023-02-04T06:54:57.561Z,8.73
2023-02-04T07:00:12.575Z,12.02
2023-02-04T07:05:27.570Z,15.07
2023-02-04T07:10:42.557Z,12.10
2023-02-04T07:15:57.644Z,81.22
2023-02-04T07:21:12.661Z,91.00
2023-02-04T07:26:28.589Z,102.45
2023-02-04T07:31:43.787Z,109.63
2023-02-04T07:36:58.679Z,124.18
2023-02-04T07:42:13.543Z,106.28
2023-02-04T07:47:35.541Z,98.18
2023-02-04T07:52:50.549Z,88.68
2023-02-04T07:58:05.535Z,87.50
2023-02-04T08:03:20.644Z,87.30
2023-02-04T08:08:35.597Z,93.38
2023-02-04T08:13:51.637Z,93.47
2023-02-04T08:19:06.657Z,88.95
2023-02-04T08:24:21.600Z,82.03
2023-02-04T08:29:36.573Z,79.57
2023-02-04T08:34:51.572Z,83.75
2023-02-04T08:40:06.558Z,63.83
2023-02-04T08:45:21.752Z,70.60
2023-02-04T08:50:39.080Z,71.40
2023-02-04T08:55:54.346Z,62.53
2023-02-04T09:01:10.985Z,56.30
2023-02-04T09:06:26.541Z,56.28
2023-02-04T09:11:41.599Z,64.50
2023-02-04T09:16:56.568Z,49.80
2023-02-04T09:22:11.953Z,61.30
2023-02-04T09:27:27.435Z,49.38
2023-02-04T09:32:42.961Z,47.03
2023-02-04T09:37:58.573Z,38.97
2023-02-04T09:43:13.628Z,37.55
2023-02-04T09:48:28.645Z,37.67
2023-02-04T09:53:43.950Z,42.10
2023-02-04T09:58:59.692Z,35.30
2023-02-04T10:04:14.607Z,34.00
2023-02-04T10:09:29.603Z,36.53
2023-02-04T10:14:44.631Z,29.45
2023-02-04T10:19:59.622Z,32.38
2023-02-04T10:25:14.680Z,39.67
2023-02-04T10:30:29.869Z,29.33
2023-02-04T10:35:45.621Z,23.67
2023-02-04T10:41:00.568Z,31.20
2023-02-04T10:46:15.396Z,25.20
2023-02-04T10:51:30.621Z,33.63
2023-02-04T10:56:45.898Z,25.25
2023-02-04T11:02:01.616Z,24.92
2023-02-04T11:07:16.627Z,25.77
2023-02-04T11:12:31.935Z,26.90
2023-02-04T11:17:47.575Z,25.33
2023-02-04T11:23:02.595Z,24.67
2023-02-04T11:28:17.673Z,24.20
2023-02-04T11:33:32.397Z,23.02
2023-02-04T11:38:47.367Z,20.73
2023-02-04T11:44:02.655Z,22.45
2023-02-04T11:49:17.618Z,21.50
2023-02-04T11:54:32.554Z,21.48
2023-02-04T11:59:47.599Z,24.10
2023-02-04T12:05:02.714Z,18.05
2023-02-04T12:10:17.693Z,16.42
2023-02-04T12:15:32.699Z,17.63
2023-02-04T12:20:48.911Z,19.88
2023-02-04T12:26:04.615Z,15.50
2023-02-04T12:31:19.739Z,21.25
2023-02-04T12:36:34.579Z,20.75
2023-02-04T12:41:49.410Z,26.00
2023-02-04T12:47:04.636Z,15.20
2023-02-04T12:52:19.620Z,15.80
2023-02-04T12:57:34.924Z,15.38
2023-02-04T13:02:51.059Z,21.63
2023-02-04T13:08:06.592Z,16.88
2023-02-04T13:13:21.557Z,17.17
2023-02-04T13:18:36.335Z,13.57
2023-02-04T13:23:51.904Z,14.10
2023-02-04T13:29:07.957Z,13.60
2023-02-04T13:34:23.603Z,18.17
2023-02-04T13:39:38.612Z,15.20
2023-02-04T13:44:53.968Z,15.98
2023-02-04T13:50:09.707Z,14.13
2023-02-04T13:55:25.015Z,14.00
2023-02-04T14:00:40.973Z,12.50
2023-02-04T14:05:56.596Z,10.43
2023-02-04T14:11:11.622Z,10.60
2023-02-04T14:16:26.615Z,14.57
2023-02-04T14:21:41.684Z,10.02
2023-02-04T14:27:34.676Z,9.25
2023-02-04T14:32:49.619Z,13.82
2023-02-04T14:38:04.380Z,20.95
2023-02-04T14:43:19.607Z,10.80
2023-02-04T14:48:34.359Z,11.65
2023-02-04T14:53:49.614Z,13.50
2023-02-04T14:59:04.553Z,13.13
2023-02-04T15:04:19.658Z,13.73
2023-02-04T15:09:34.565Z,8.57
2023-02-04T15:14:49.957Z,13.25
2023-02-04T15:20:05.598Z,16.08
2023-02-04T15:25:20.349Z,12.60
2023-02-04T15:30:35.996Z,15.20
2023-02-04T15:35:51.998Z,9.27
2023-02-04T15:41:07.907Z,12.73
2023-02-04T15:46:23.754Z,9.32
2023-02-04T15:51:38.688Z,10.50
2023-02-04T15:56:53.352Z,10.55
2023-02-04T16:02:08.363Z,13.65
2023-02-04T16:07:23.661Z,11.32
2023-02-04T16:12:39.084Z,14.52
2023-02-04T16:17:54.681Z,14.40
2023-02-04T16:23:09.583Z,10.60
2023-02-04T16:28:25.368Z,11.68
2023-02-04T16:33:40.646Z,14.27
2023-02-04T16:38:55.592Z,10.57
2023-02-04T16:44:10.622Z,10.32
2023-02-04T16:49:25.566Z,8.13
2023-02-04T16:54:40.641Z,11.18
2023-02-04T16:59:55.861Z,7.15
2023-02-04T17:05:11.654Z,11.55
2023-02-04T17:10:26.646Z,12.93
2023-02-04T17:15:41.946Z,9.80
2023-02-04T17:20:58.016Z,7.18
2023-02-04T17:26:13.605Z,10.10
2023-02-04T17:31:28.675Z,9.70
2023-02-04T17:36:43.596Z,7.80
2023-02-04T17:41:58.567Z,8.88
2023-02-04T17:47:13.637Z,12.57
2023-02-04T17:52:28.603Z,10.90
2023-02-04T17:57:43.642Z,8.57
2023-02-04T18:02:58.960Z,9.23
2023-02-04T18:08:14.663Z,10.27
2023-02-04T18:13:29.628Z,12.90
2023-02-04T18:18:44.649Z,10.35
2023-02-04T18:24:01.188Z,12.43
2023-02-04T18:29:16.723Z,11.48
2023-02-04T18:34:31.658Z,9.43
2023-02-04T18:39:46.662Z,8.43
2023-02-04T18:45:01.599Z,8.30
2023-02-04T18:50:16.668Z,19.45
2023-02-04T18:55:32.637Z,14.27
2023-02-04T19:00:47.671Z,18.25
2023-02-04T19:06:02.649Z,16.48
2023-02-04T19:11:17.700Z,17.95
2023-02-04T19:16:32.687Z,13.73
2023-02-04T19:21:47.925Z,16.38
2023-02-04T19:27:03.630Z,13.52
2023-02-04T19:32:18.605Z,28.55
2023-02-04T19:37:33.896Z,16.92
2023-02-04T19:42:50.080Z,22.25
2023-02-04T19:48:05.636Z,13.55
2023-02-04T19:53:20.708Z,22.30
2023-02-04T19:58:36.612Z,36.28
2023-02-04T20:03:51.644Z,13.82
2023-02-04T20:09:06.620Z,12.77
2023-02-04T20:14:21.597Z,16.33
2023-02-04T20:19:36.748Z,11.15
2023-02-04T20:24:51.656Z,10.85
2023-02-04T20:30:06.580Z,11.98
2023-02-04T20:35:21.646Z,12.32
2023-02-04T20:40:36.413Z,19.08
2023-02-04T20:45:51.748Z,13.60
2023-02-04T20:51:08.108Z,14.00
2023-02-04T20:56:23.641Z,14.98
2023-02-04T21:01:38.788Z,11.80
2023-02-04T21:06:53.674Z,11.52
2023-02-04T21:12:08.696Z,22.23
2023-02-04T21:17:23.684Z,13.00
2023-02-04T21:22:38.923Z,12.40
2023-02-04T21:27:54.731Z,11.77
2023-02-04T21:33:09.631Z,10.18
2023-02-04T21:38:25.059Z,9.60
2023-02-04T21:43:40.641Z,13.95
2023-02-04T21:48:56.087Z,16.98
2023-02-04T21:54:11.606Z,13.35
2023-02-04T21:59:26.396Z,7.57
2023-02-04T22:04:41.675Z,15.77
2023-02-04T22:09:56.617Z,12.88
2023-02-04T22:15:11.615Z,19.35
2023-02-04T22:20:26.616Z,11.48
2023-02-04T22:25:41.644Z,9.45
2023-02-04T22:30:57.061Z,13.27
2023-02-04T22:36:12.654Z,9.80
2023-02-04T22:41:27.370Z,9.50
2023-02-04T22:46:42.698Z,8.65
2023-02-04T22:51:57.690Z,12.77
2023-02-04T22:57:12.632Z,13.05
2023-02-04T23:02:27.642Z,12.73
2023-02-04T23:07:42.964Z,9.95
2023-02-04T23:12:58.673Z,12.52
2023-02-04T23:18:13.697Z,17.58
2023-02-04T23:23:28.654Z,13.27
2023-02-04T23:28:43.613Z,12.82
2023-02-04T23:33:58.613Z,14.85
2023-02-04T23:39:13.662Z,17.58
2023-02-04T23:44:29.016Z,8.70
2023-02-04T23:49:44.935Z,12.00
2023-02-04T23:55:00.711Z,15.60
